Time;durP1;ratioP1;P1;durP2;ratioP2;P2;SDS_P1;SDS_P2;PMS_P1;PMS_P2;Temp;Humidity;BMP_temperature;BMP_pressure;BME280_temperature;BME280_humidity;BME280_pressure;Samples;Min_cycle;Max_cycle;Signal;HPM_P1;HPM_P2
2023/12/08 00:01:16;;;;;;;50.95;24.40;;;;;;;-1.29;85.34;98504.84;5025921;28;20683;-82
2023/12/08 00:03:42;;;;;;;43.58;23.05;;;;;;;-0.84;86.00;98501.97;4995003;28;20109;-82
2023/12/08 00:06:08;;;;;;;47.63;24.48;;;;;;;-0.13;84.22;98525.47;5008514;28;20032;-82
2023/12/08 00:08:34;;;;;;;42.17;22.13;;;;;;;0.16;82.64;98521.06;5011163;28;20040;-82
2023/12/08 00:10:59;;;;;;;42.47;22.02;;;;;;;0.17;81.86;98514.84;5010916;28;20438;-82
2023/12/08 00:13:25;;;;;;;35.88;20.80;;;;;;;0.14;81.47;98507.34;5005694;28;20180;-82
2023/12/08 00:15:50;;;;;;;44.30;22.88;;;;;;;-0.15;82.44;98497.81;4989611;28;20037;-81
2023/12/08 00:18:16;;;;;;;46.92;23.67;;;;;;;-0.40;81.81;98479.06;5009740;28;20033;-82
2023/12/08 00:20:41;;;;;;;48.47;23.23;;;;;;;-0.50;83.53;98473.31;4992471;28;20040;-82
2023/12/08 00:23:06;;;;;;;40.50;20.58;;;;;;;-0.14;83.52;98462.75;5008011;28;20864;-83
2023/12/08 00:25:32;;;;;;;40.22;22.38;;;;;;;-0.15;81.84;98456.69;5011179;28;20032;-82
2023/12/08 00:27:57;;;;;;;45.85;21.70;;;;;;;-0.33;82.31;98461.56;5009154;28;20061;-82
2023/12/08 00:30:23;;;;;;;49.80;26.80;;;;;;;-0.72;82.83;98463.03;5009559;28;20482;-82
2023/12/08 00:32:49;;;;;;;41.72;21.80;;;;;;;-0.41;83.92;98455.63;5007329;28;20026;-82
2023/12/08 00:35:15;;;;;;;42.38;22.13;;;;;;;-0.71;82.89;98460.22;5008875;28;20478;-82
2023/12/08 00:37:40;;;;;;;45.53;23.45;;;;;;;-1.25;85.59;98444.13;5002406;28;20048;-82
2023/12/08 00:40:08;;;;;;;44.08;22.75;;;;;;;-0.99;85.75;98444.41;5005547;28;20029;-82
2023/12/08 00:42:34;;;;;;;40.75;22.60;;;;;;;-1.47;85.92;98445.03;5028249;28;20367;-82
2023/12/08 00:44:59;;;;;;;36.92;21.75;;;;;;;-0.89;86.93;98434.44;5008601;28;20104;-82
2023/12/08 00:47:25;;;;;;;41.08;20.75;;;;;;;-1.07;85.80;98439.25;5010870;28;20120;-82
2023/12/08 00:49:50;;;;;;;45.40;23.52;;;;;;;-1.44;86.60;98443.88;5010854;28;20034;-82
2023/12/08 00:52:15;;;;;;;44.20;23.63;;;;;;;-1.21;86.96;98428.84;5022596;28;20482;-82
2023/12/08 00:54:41;;;;;;;38.83;22.25;;;;;;;-1.03;84.40;98439.72;5007290;28;20030;-82
2023/12/08 00:57:06;;;;;;;40.15;20.25;;;;;;;-0.53;85.38;98430.94;5010926;28;20044;-82
2023/12/08 00:59:31;;;;;;;38.60;19.88;;;;;;;-1.17;84.35;98428.28;4997353;28;20029;-82
2023/12/08 01:01:57;;;;;;;40.92;21.63;;;;;;;-0.83;84.84;98446.00;5008427;28;20117;-83
2023/12/08 01:04:22;;;;;;;40.78;21.40;;;;;;;-0.08;83.99;98443.63;5021759;28;20129;-82
2023/12/08 01:06:47;;;;;;;38.70;21.42;;;;;;;-0.59;84.58;98431.72;5009037;28;20107;-82
2023/12/08 01:09:13;;;;;;;40.03;19.95;;;;;;;-0.72;84.86;98440.22;4989364;28;20053;-82
2023/12/08 01:11:38;;;;;;;35.63;20.92;;;;;;;-1.08;85.09;98431.59;5008863;28;20076;-82
2023/12/08 01:14:04;;;;;;;39.17;20.33;;;;;;;-0.66;85.97;98431.66;5009406;28;20030;-82
2023/12/08 01:16:29;;;;;;;40.95;22.77;;;;;;;-0.96;85.63;98440.63;5008839;28;20030;-82
2023/12/08 01:18:55;;;;;;;43.92;21.70;;;;;;;-1.51;87.17;98434.09;5008265;28;20421;-82
2023/12/08 01:21:20;;;;;;;40.97;22.08;;;;;;;-0.63;86.99;98430.47;5023912;28;20096;-83
2023/12/08 01:23:45;;;;;;;42.47;23.20;;;;;;;-0.56;85.19;98444.41;5010980;28;20032;-82
2023/12/08 01:26:11;;;;;;;42.78;22.58;;;;;;;-0.66;86.11;98441.31;5007302;28;20045;-82
2023/12/08 01:28:36;;;;;;;40.28;21.17;;;;;;;-0.89;86.03;98441.47;4992530;28;20034;-83
2023/12/08 01:31:03;;;;;;;40.03;22.27;;;;;;;-1.68;86.60;98435.28;5010693;28;20109;-83
2023/12/08 01:33:28;;;;;;;39.47;21.50;;;;;;;-1.42;87.65;98426.19;5009363;28;20032;-82
2023/12/08 01:35:54;;;;;;;44.28;22.45;;;;;;;-1.25;87.74;98412.69;5026039;28;20390;-82
2023/12/08 01:38:19;;;;;;;38.05;20.05;;;;;;;-0.75;86.75;98393.47;4992053;28;20403;-82
2023/12/08 01:40:44;;;;;;;41.22;21.00;;;;;;;-1.01;85.23;98387.97;5015854;28;20044;-82
2023/12/08 01:43:11;;;;;;;40.55;20.52;;;;;;;-1.56;86.76;98381.53;4990750;28;20030;-82
2023/12/08 01:45:37;;;;;;;40.53;20.15;;;;;;;-1.64;88.98;98389.47;5007086;28;20482;-82
2023/12/08 01:48:03;;;;;;;42.72;22.90;;;;;;;-2.02;88.80;98384.53;4991568;28;20052;-82
2023/12/08 01:50:29;;;;;;;45.90;20.40;;;;;;;-1.69;90.35;98357.84;4992108;28;20027;-82
2023/12/08 01:52:54;;;;;;;43.10;22.17;;;;;;;-1.67;88.72;98352.41;5009601;28;20025;-81
2023/12/08 01:55:20;;;;;;;48.35;22.95;;;;;;;-1.20;87.52;98351.94;5023887;28;20034;-81
2023/12/08 01:57:45;;;;;;;39.88;21.85;;;;;;;-1.60;88.57;98348.88;5003435;28;20033;-82
2023/12/08 02:00:11;;;;;;;42.95;21.02;;;;;;;-1.25;89.00;98335.97;5007060;28;20418;-82
2023/12/08 02:02:37;;;;;;;42.85;22.02;;;;;;;-1.17;88.23;98338.47;5021568;28;20030;-82
2023/12/08 02:05:04;;;;;;;43.33;22.02;;;;;;;-1.32;88.79;98340.31;5007848;28;20029;-82
2023/12/08 02:07:31;;;;;;;44.80;24.15;;;;;;;-1.64;88.80;98331.91;5009288;28;20021;-82
2023/12/08 02:09:57;;;;;;;48.92;25.67;;;;;;;-1.83;88.37;98316.81;5002908;28;20474;-82
2023/12/08 02:12:23;;;;;;;52.92;25.48;;;;;;;-1.97;90.66;98330.72;5006115;28;20034;-81
2023/12/08 02:14:51;;;;;;;52.00;26.90;;;;;;;-2.11;90.32;98326.31;5008842;28;20029;-82
2023/12/08 02:17:20;;;;;;;48.50;25.67;;;;;;;-1.25;89.71;98330.72;5022621;28;20125;-82
2023/12/08 02:19:47;;;;;;;45.88;24.50;;;;;;;-1.16;88.55;98334.84;5007476;28;20041;-82
2023/12/08 02:22:12;;;;;;;48.75;24.85;;;;;;;-1.27;86.92;98337.97;5000261;28;20029;-82
2023/12/08 02:24:37;;;;;;;47.55;24.55;;;;;;;-1.13;87.68;98324.00;5005924;28;20091;-82
2023/12/08 02:27:03;;;;;;;47.85;25.80;;;;;;;-1.43;87.82;98320.69;4988934;28;20033;-82
2023/12/08 02:29:29;;;;;;;51.63;24.48;;;;;;;-1.08;89.12;98327.69;5010281;28;20087;-82
2023/12/08 02:32:37;;;;;;;48.42;24.73;;;;;;;-0.79;87.30;98324.13;5005029;28;20569;-82
2023/12/08 02:35:06;;;;;;;44.65;23.15;;;;;;;-0.23;85.75;98338.81;4943199;28;20538;-82
2023/12/08 02:37:36;;;;;;;45.40;23.38;;;;;;;-0.23;85.00;98330.97;4995009;28;20052;-82
2023/12/08 02:40:05;;;;;;;48.70;24.23;;;;;;;-0.70;86.49;98328.22;5022891;28;20474;-82
2023/12/08 02:42:30;;;;;;;41.67;23.05;;;;;;;-0.08;85.13;98328.22;5003423;28;20029;-82
2023/12/08 02:44:55;;;;;;;46.80;23.65;;;;;;;-0.22;85.26;98329.16;5008467;28;20030;-82
2023/12/08 02:47:21;;;;;;;47.22;24.15;;;;;;;-0.28;84.47;98322.84;5005412;28;20046;-82
2023/12/08 02:49:46;;;;;;;48.78;24.08;;;;;;;-0.71;84.76;98318.72;5011960;28;20034;-83
2023/12/08 02:52:11;;;;;;;42.75;23.15;;;;;;;-0.76;86.71;98315.84;4990301;28;20034;-82
2023/12/08 02:54:37;;;;;;;48.85;25.20;;;;;;;-0.86;87.78;98304.91;5007071;28;20490;-82
2023/12/08 02:57:02;;;;;;;48.75;25.02;;;;;;;-0.40;85.54;98295.56;4993665;28;20034;-82
2023/12/08 02:59:28;;;;;;;46.63;25.58;;;;;;;-0.79;85.43;98303.16;5008604;28;20129;-82
2023/12/08 03:01:53;;;;;;;47.05;24.73;;;;;;;-1.25;87.71;98289.66;5003762;28;21037;-82
2023/12/08 03:04:18;;;;;;;51.28;25.42;;;;;;;-0.54;87.17;98288.59;4992147;28;20030;-83
2023/12/08 03:06:44;;;;;;;52.88;26.95;;;;;;;-0.76;85.44;98285.22;5004182;28;20467;-82
2023/12/08 03:09:09;;;;;;;44.17;23.20;;;;;;;-0.95;86.53;98280.66;4989728;28;20057;-82
2023/12/08 03:11:35;;;;;;;47.13;25.70;;;;;;;-1.27;87.25;98262.88;4991397;28;20065;-82
2023/12/08 03:14:00;;;;;;;49.13;25.63;;;;;;;-1.71;87.73;98242.13;5003191;28;20152;-82
2023/12/08 03:16:25;;;;;;;53.92;26.27;;;;;;;-2.19;89.55;98241.94;5003253;28;20065;-82
2023/12/08 03:18:51;;;;;;;43.35;22.45;;;;;;;-1.21;90.53;98256.06;5005441;28;20515;-82
2023/12/08 03:21:23;;;;;;;52.30;27.23;;;;;;;-1.07;88.25;98240.25;5001515;28;20073;-82
2023/12/08 03:23:48;;;;;;;52.33;25.65;;;;;;;-0.79;87.66;98238.44;5004114;28;20021;-83
2023/12/08 03:26:14;;;;;;;46.45;23.73;;;;;;;-1.40;87.18;98226.13;5008014;28;20028;-82
2023/12/08 03:28:39;;;;;;;49.35;25.52;;;;;;;-2.12;87.90;98216.72;4992704;28;20029;-82
2023/12/08 03:31:05;;;;;;;44.95;24.73;;;;;;;-1.51;89.23;98206.47;5010444;28;20638;-81
2023/12/08 03:33:30;;;;;;;55.33;26.58;;;;;;;-1.78;88.53;98209.84;5004344;28;20400;-82
2023/12/08 03:35:55;;;;;;;44.97;23.45;;;;;;;-0.91;88.33;98220.84;4989384;28;20126;-82
2023/12/08 03:38:21;;;;;;;47.47;24.30;;;;;;;-0.96;88.31;98223.25;5004179;28;20121;-82
2023/12/08 03:40:46;;;;;;;50.85;23.67;;;;;;;-0.26;86.97;98223.03;5006323;28;20049;-81
2023/12/08 03:43:11;;;;;;;47.10;23.33;;;;;;;-0.47;86.09;98226.56;5012144;28;20480;-82
2023/12/08 03:45:37;;;;;;;43.28;23.67;;;;;;;-0.91;85.61;98220.84;5012174;28;20025;-82
2023/12/08 03:48:02;;;;;;;50.97;25.15;;;;;;;-0.69;86.31;98209.31;5004831;28;20037;-82
2023/12/08 03:50:28;;;;;;;48.88;24.30;;;;;;;-0.93;86.90;98205.31;5017688;28;20058;-82
2023/12/08 03:52:54;;;;;;;47.63;25.00;;;;;;;-1.04;87.24;98221.56;4989000;28;21440;-82
2023/12/08 03:55:21;;;;;;;48.80;23.67;;;;;;;-0.88;87.74;98223.09;4988568;28;20037;-83
2023/12/08 03:57:46;;;;;;;43.70;23.08;;;;;;;-0.22;86.25;98221.66;5006935;28;20034;-82
2023/12/08 04:00:12;;;;;;;35.50;21.73;;;;;;;-0.21;85.70;98223.25;5010605;28;20539;-82
2023/12/08 04:02:37;;;;;;;44.22;22.67;;;;;;;-0.68;85.39;98226.66;5002367;28;20058;-83
2023/12/08 04:05:03;;;;;;;44.95;22.63;;;;;;;-0.33;85.85;98203.84;5023224;28;20056;-82
2023/12/08 04:07:28;;;;;;;43.70;22.63;;;;;;;-0.58;86.24;98206.16;4990833;28;20560;-82
2023/12/08 04:09:54;;;;;;;40.95;21.85;;;;;;;-0.46;86.95;98222.94;5000194;28;20041;-82
2023/12/08 04:12:20;;;;;;;50.05;24.25;;;;;;;0.05;85.50;98219.91;4988419;28;20040;-82
2023/12/08 04:14:46;;;;;;;37.65;22.08;;;;;;;-0.27;85.43;98216.19;5005245;28;20072;-82
2023/12/08 04:17:11;;;;;;;39.78;21.75;;;;;;;-0.43;85.97;98212.06;5022990;28;20076;-82
2023/12/08 04:19:37;;;;;;;41.97;22.98;;;;;;;-0.79;86.77;98216.72;5004872;28;20683;-82
2023/12/08 04:22:03;;;;;;;48.70;22.08;;;;;;;-0.50;86.88;98203.34;5003243;28;20045;-82
2023/12/08 04:24:28;;;;;;;39.83;21.30;;;;;;;-0.33;86.63;98191.53;5003474;28;20120;-82
2023/12/08 04:26:54;;;;;;;45.40;21.75;;;;;;;-0.47;87.11;98208.22;5003396;28;20033;-81
2023/12/08 04:29:19;;;;;;;46.00;24.35;;;;;;;-0.36;84.97;98202.44;4990364;28;20065;-82
2023/12/08 04:31:44;;;;;;;45.05;23.80;;;;;;;-0.78;85.09;98202.59;4992235;28;20124;-82
2023/12/08 04:34:10;;;;;;;36.97;21.30;;;;;;;-0.40;86.73;98216.94;5000031;28;20044;-83
2023/12/08 04:36:35;;;;;;;41.88;21.48;;;;;;;-0.28;87.17;98209.31;5004617;28;20478;-83
2023/12/08 04:39:01;;;;;;;43.00;23.85;;;;;;;-0.80;87.34;98204.59;5008300;28;20390;-82
2023/12/08 04:41:26;;;;;;;46.50;22.70;;;;;;;-1.14;87.17;98183.63;5006947;28;20412;-83
2023/12/08 04:43:51;;;;;;;43.95;22.10;;;;;;;-1.51;88.20;98195.22;4989331;28;20482;-83
2023/12/08 04:46:18;;;;;;;49.03;23.50;;;;;;;-1.96;89.92;98170.22;5001284;28;21061;-82
2023/12/08 04:48:43;;;;;;;39.47;20.33;;;;;;;-0.99;90.56;98197.44;5013409;28;20117;-83
2023/12/08 04:51:09;;;;;;;46.13;22.30;;;;;;;-1.33;88.42;98207.84;5026443;28;20157;-82
2023/12/08 04:53:34;;;;;;;43.88;23.00;;;;;;;-0.97;88.89;98187.56;5009143;28;20021;-82
2023/12/08 04:55:59;;;;;;;35.92;20.35;;;;;;;-1.22;88.02;98199.47;5008075;28;20095;-82
2023/12/08 04:58:25;;;;;;;45.28;23.90;;;;;;;-1.38;89.32;98194.50;5009175;28;20045;-82
2023/12/08 05:00:51;;;;;;;47.67;23.58;;;;;;;-1.05;89.16;98187.72;5009268;28;20033;-82
2023/12/08 05:03:16;;;;;;;45.25;21.85;;;;;;;-1.30;88.96;98189.13;5006955;28;20034;-82
2023/12/08 05:05:42;;;;;;;39.65;21.88;;;;;;;-1.48;89.18;98188.78;5008907;28;20014;-82
2023/12/08 05:08:07;;;;;;;44.75;24.48;;;;;;;-1.80;90.42;98193.53;5009181;28;20112;-82
2023/12/08 05:10:33;;;;;;;40.85;23.10;;;;;;;-1.43;91.05;98202.09;5007517;28;20034;-81
2023/12/08 05:12:58;;;;;;;49.45;22.80;;;;;;;-1.14;88.71;98197.53;4987248;28;20037;-82
2023/12/08 05:15:23;;;;;;;50.58;25.02;;;;;;;-1.49;89.36;98198.44;5008421;28;20053;-83
2023/12/08 05:17:49;;;;;;;42.75;22.25;;;;;;;-1.29;90.74;98188.97;5011142;28;20429;-82
2023/12/08 05:20:15;;;;;;;46.47;23.67;;;;;;;-1.69;90.37;98169.50;5004080;28;20406;-82
2023/12/08 05:22:40;;;;;;;43.15;22.73;;;;;;;-1.56;90.57;98179.25;5000051;28;20057;-82
2023/12/08 05:25:06;;;;;;;49.35;23.52;;;;;;;-1.53;90.57;98171.84;5024024;28;20080;-82
2023/12/08 05:27:32;;;;;;;41.72;21.75;;;;;;;-1.71;89.82;98168.06;5005194;28;20041;-82
2023/12/08 05:29:57;;;;;;;47.88;24.23;;;;;;;-1.50;90.45;98160.19;4987821;28;20033;-82
2023/12/08 05:32:23;;;;;;;42.90;21.13;;;;;;;-1.63;91.70;98165.31;4984181;28;20034;-81
2023/12/08 05:34:48;;;;;;;44.90;23.17;;;;;;;-1.27;92.11;98165.22;5018485;28;20037;-81
2023/12/08 05:37:14;;;;;;;43.53;23.15;;;;;;;-1.63;90.42;98171.34;4982124;28;20030;-82
2023/12/08 05:39:39;;;;;;;48.08;23.30;;;;;;;-0.27;89.45;98180.28;5009353;28;20048;-82
2023/12/08 05:42:04;;;;;;;50.70;22.98;;;;;;;-0.95;89.07;98154.13;5021965;28;20073;-82
2023/12/08 05:44:30;;;;;;;41.20;22.02;;;;;;;-1.06;87.97;98165.16;5019519;28;20077;-82
2023/12/08 05:46:55;;;;;;;40.35;21.35;;;;;;;-0.84;89.31;98177.19;5016704;28;20371;-83
2023/12/08 05:49:20;;;;;;;41.33;22.98;;;;;;;-0.83;87.46;98176.97;5010797;28;20046;-82
2023/12/08 05:51:46;;;;;;;47.10;23.05;;;;;;;-0.43;88.55;98162.25;5023371;28;20084;-83
2023/12/08 05:54:11;;;;;;;40.95;21.10;;;;;;;0.33;86.63;98165.50;4990292;28;20092;-83
2023/12/08 05:56:38;;;;;;;44.65;22.38;;;;;;;-0.35;86.59;98156.84;5006989;28;20038;-82
2023/12/08 05:59:03;;;;;;;45.78;23.63;;;;;;;-0.69;86.94;98170.00;4999772;28;20037;-82
2023/12/08 06:01:28;;;;;;;43.03;22.15;;;;;;;-0.42;86.84;98160.47;5004381;28;20061;-82
2023/12/08 06:03:54;;;;;;;41.55;22.52;;;;;;;-0.34;87.05;98162.91;4987484;28;21470;-83
2023/12/08 06:06:20;;;;;;;39.10;21.80;;;;;;;-0.92;87.29;98149.31;5004353;28;20030;-82
2023/12/08 06:08:45;;;;;;;46.10;20.65;;;;;;;-0.27;88.00;98150.63;5015960;28;20034;-83
2023/12/08 06:11:11;;;;;;;43.20;24.52;;;;;;;-0.90;86.83;98149.97;4992956;28;20393;-82
2023/12/08 06:13:36;;;;;;;41.47;21.13;;;;;;;-0.71;88.42;98156.28;5013671;28;20084;-82
2023/12/08 06:16:03;;;;;;;40.50;22.35;;;;;;;-1.17;87.90;98149.97;5005148;28;20038;-81
2023/12/08 06:18:29;;;;;;;48.00;22.55;;;;;;;-0.49;89.45;98147.31;5023263;28;20568;-82
2023/12/08 06:20:54;;;;;;;40.95;22.67;;;;;;;-0.31;87.88;98145.00;5010865;28;20066;-82
2023/12/08 06:23:20;;;;;;;44.70;21.77;;;;;;;-0.25;88.47;98140.75;5009834;28;20042;-82
2023/12/08 06:25:45;;;;;;;38.40;20.60;;;;;;;0.24;86.42;98132.59;5010922;28;20034;-83
2023/12/08 06:28:10;;;;;;;41.75;20.80;;;;;;;0.05;86.44;98141.22;5020092;28;20041;-83
2023/12/08 06:30:36;;;;;;;34.70;19.00;;;;;;;0.04;86.50;98139.63;5011016;28;20418;-83
2023/12/08 06:33:01;;;;;;;37.22;19.88;;;;;;;0.30;85.40;98134.41;5002976;28;20649;-83
2023/12/08 06:35:27;;;;;;;32.88;18.83;;;;;;;0.00;84.76;98124.28;4988137;28;20037;-83
2023/12/08 06:37:52;;;;;;;31.58;18.48;;;;;;;0.02;85.06;98137.22;4993168;28;20030;-83
2023/12/08 06:40:17;;;;;;;29.58;18.52;;;;;;;-0.18;85.30;98121.44;5004743;28;20124;-83
2023/12/08 06:42:43;;;;;;;34.35;19.52;;;;;;;0.35;85.28;98132.00;5014439;28;20052;-83
2023/12/08 06:45:08;;;;;;;30.73;17.77;;;;;;;0.47;84.85;98139.06;5017373;28;20040;-84
2023/12/08 06:47:34;;;;;;;35.92;18.17;;;;;;;0.13;85.31;98134.00;5018407;28;20034;-83
2023/12/08 06:49:59;;;;;;;36.05;19.58;;;;;;;-0.03;84.71;98137.81;4986295;28;20117;-83
2023/12/08 06:52:24;;;;;;;31.98;18.90;;;;;;;0.39;85.31;98127.97;4993838;28;20101;-83
2023/12/08 06:54:50;;;;;;;39.17;20.23;;;;;;;-0.01;86.24;98142.84;5009073;28;20057;-83
2023/12/08 06:57:15;;;;;;;34.47;18.92;;;;;;;-0.05;85.63;98137.19;5010511;28;20112;-83
2023/12/08 06:59:40;;;;;;;37.70;19.45;;;;;;;0.24;85.36;98132.59;5006608;28;20480;-82
2023/12/08 07:02:06;;;;;;;36.60;19.65;;;;;;;-0.11;85.99;98124.06;5004628;28;20074;-82
2023/12/08 07:04:31;;;;;;;40.53;19.98;;;;;;;-0.63;86.83;98123.91;5019635;28;20037;-83
2023/12/08 07:06:57;;;;;;;34.15;18.40;;;;;;;-0.81;87.93;98124.41;4988440;28;20038;-82
2023/12/08 07:09:22;;;;;;;36.95;20.23;;;;;;;-1.04;88.47;98119.44;4989163;28;20117;-83
2023/12/08 07:11:48;;;;;;;35.55;19.15;;;;;;;-0.50;88.73;98118.72;5007482;28;20067;-83
2023/12/08 07:14:13;;;;;;;40.63;20.45;;;;;;;-0.19;87.24;98121.59;5002220;28;20030;-82
2023/12/08 07:16:42;;;;;;;34.13;19.30;;;;;;;-0.46;85.77;98118.09;4982274;28;20102;-82
2023/12/08 07:19:08;;;;;;;47.92;25.95;;;;;;;-0.22;86.96;98116.78;5010089;28;20030;-82
2023/12/08 07:21:33;;;;;;;39.50;19.70;;;;;;;-0.03;85.43;98119.44;5009891;28;20044;-82
2023/12/08 07:23:58;;;;;;;36.53;20.88;;;;;;;0.08;85.03;98119.84;5002916;28;20121;-82
2023/12/08 07:26:24;;;;;;;35.42;19.13;;;;;;;-0.07;85.07;98128.69;5008440;28;20060;-82
2023/12/08 07:28:49;;;;;;;35.50;20.30;;;;;;;0.18;84.12;98128.94;4990776;28;20037;-82
2023/12/08 07:31:15;;;;;;;35.65;18.05;;;;;;;-0.36;84.51;98133.47;5003550;28;20068;-82
2023/12/08 07:33:40;;;;;;;32.55;17.90;;;;;;;0.09;84.25;98143.25;4999561;28;20501;-82
2023/12/08 07:36:06;;;;;;;32.08;18.58;;;;;;;-0.01;83.52;98140.22;5019921;28;20021;-82
2023/12/08 07:38:31;;;;;;;31.65;18.00;;;;;;;0.02;84.25;98139.00;5007000;28;20065;-82
2023/12/08 07:40:57;;;;;;;33.70;17.27;;;;;;;-0.38;84.82;98131.03;5002882;28;20033;-82
2023/12/08 07:43:22;;;;;;;30.38;17.73;;;;;;;-0.17;83.65;98135.31;4970790;28;20030;-82
2023/12/08 07:45:47;;;;;;;32.08;17.80;;;;;;;-0.32;85.23;98156.47;5001181;28;20030;-82
2023/12/08 07:48:13;;;;;;;33.67;18.13;;;;;;;-0.44;85.30;98141.50;5009818;28;20508;-82
2023/12/08 07:50:38;;;;;;;36.97;19.33;;;;;;;-0.39;85.11;98153.00;4991160;28;20488;-82
2023/12/08 07:53:04;;;;;;;37.35;19.73;;;;;;;0.13;84.25;98143.69;5011203;28;20092;-82
2023/12/08 07:55:29;;;;;;;35.58;17.95;;;;;;;-0.02;83.27;98142.03;4993729;28;20462;-82
2023/12/08 07:57:55;;;;;;;34.58;19.48;;;;;;;0.19;83.38;98141.06;4988674;28;20034;-83
2023/12/08 08:00:21;;;;;;;34.42;19.17;;;;;;;0.13;84.26;98147.13;5003090;28;20112;-83
2023/12/08 08:02:46;;;;;;;35.75;19.58;;;;;;;0.49;82.30;98144.09;4993992;28;20489;-81
2023/12/08 08:05:12;;;;;;;42.53;21.13;;;;;;;0.28;82.25;98152.19;5012607;28;20026;-82
2023/12/08 08:07:38;;;;;;;34.55;18.60;;;;;;;0.31;83.55;98164.88;5005556;28;20042;-82
2023/12/08 08:10:04;;;;;;;34.63;18.45;;;;;;;0.56;82.73;98155.41;5004043;28;20041;-83
2023/12/08 08:12:32;;;;;;;32.78;18.40;;;;;;;0.47;82.39;98167.13;5008363;28;20076;-82
2023/12/08 08:14:57;;;;;;;33.05;17.55;;;;;;;0.34;83.01;98167.94;5015701;28;20577;-82
2023/12/08 08:17:23;;;;;;;31.60;17.90;;;;;;;0.61;81.80;98166.13;5011798;28;20129;-83
2023/12/08 08:19:48;;;;;;;36.70;20.05;;;;;;;0.52;82.62;98170.78;4993039;28;20420;-83
2023/12/08 08:22:14;;;;;;;30.10;17.20;;;;;;;0.70;82.03;98164.91;5034828;28;20069;-82
2023/12/08 08:24:39;;;;;;;30.35;17.83;;;;;;;0.62;81.89;98165.09;5015306;28;20088;-84
2023/12/08 08:27:05;;;;;;;28.65;16.98;;;;;;;0.62;82.14;98159.84;5022860;28;20037;-83
2023/12/08 08:29:30;;;;;;;36.38;17.63;;;;;;;0.67;82.04;98170.56;5015499;28;20177;-84
2023/12/08 08:31:55;;;;;;;25.38;15.68;;;;;;;0.05;83.94;98164.81;5018183;28;20421;-82
2023/12/08 08:34:21;;;;;;;35.55;16.70;;;;;;;0.47;83.04;98146.13;5016489;28;20034;-83
2023/12/08 08:36:46;;;;;;;28.98;16.08;;;;;;;0.47;82.79;98172.38;5009185;28;20029;-83
2023/12/08 08:39:12;;;;;;;27.52;16.50;;;;;;;0.67;81.83;98165.31;5011683;28;20092;-82
2023/12/08 08:41:38;;;;;;;28.83;16.42;;;;;;;0.40;83.39;98156.63;5012878;28;20031;-82
2023/12/08 08:44:03;;;;;;;33.53;15.88;;;;;;;0.38;84.22;98165.69;5007754;28;20823;-83
2023/12/08 08:46:29;;;;;;;28.52;15.23;;;;;;;0.35;84.33;98163.50;5018326;28;20026;-83
2023/12/08 08:48:55;;;;;;;30.27;15.48;;;;;;;0.43;84.44;98150.16;5004037;28;20039;-82
2023/12/08 08:51:21;;;;;;;25.30;14.27;;;;;;;0.28;84.74;98154.81;5014418;28;20033;-83
2023/12/08 08:53:49;;;;;;;26.70;15.05;;;;;;;0.33;84.90;98158.44;5021797;28;20041;-83
2023/12/08 08:56:14;;;;;;;28.75;15.45;;;;;;;0.37;85.22;98167.50;5013517;28;20030;-83
2023/12/08 08:58:40;;;;;;;21.17;13.55;;;;;;;0.28;85.69;98165.28;5005848;28;20041;-83
2023/12/08 09:01:05;;;;;;;24.95;15.23;;;;;;;0.38;85.54;98165.69;5011858;28;20041;-82
2023/12/08 09:03:30;;;;;;;27.00;13.23;;;;;;;0.37;85.96;98156.22;5007671;28;20066;-82
2023/12/08 09:05:56;;;;;;;24.02;13.35;;;;;;;0.29;85.90;98153.78;5027014;28;20033;-83
2023/12/08 09:08:21;;;;;;;27.92;14.30;;;;;;;0.55;85.82;98165.09;5032649;28;20112;-83
2023/12/08 09:10:47;;;;;;;23.20;13.55;;;;;;;0.57;85.92;98168.34;5016641;28;20100;-82
2023/12/08 09:13:12;;;;;;;25.30;14.55;;;;;;;0.34;86.21;98148.75;5014323;28;20034;-83
2023/12/08 09:15:38;;;;;;;23.60;14.02;;;;;;;0.53;85.84;98155.81;5017919;28;20029;-83
2023/12/08 09:18:03;;;;;;;25.35;14.27;;;;;;;0.44;85.83;98154.38;5012348;28;20034;-83
2023/12/08 09:20:29;;;;;;;28.65;14.40;;;;;;;0.07;87.35;98154.97;5021189;28;20032;-84
2023/12/08 09:22:54;;;;;;;23.85;14.15;;;;;;;0.15;86.73;98146.91;5017275;28;20044;-83
2023/12/08 09:25:21;;;;;;;24.92;15.13;;;;;;;0.34;87.08;98159.25;5027924;28;20044;-83
2023/12/08 09:27:47;;;;;;;29.67;17.00;;;;;;;0.21;87.58;98152.16;5023934;28;20048;-83
2023/12/08 09:30:12;;;;;;;28.45;16.30;;;;;;;0.31;86.82;98151.75;5010572;28;20038;-83
2023/12/08 09:32:37;;;;;;;27.40;15.10;;;;;;;0.68;86.08;98143.28;5008674;28;20856;-83
2023/12/08 09:35:03;;;;;;;24.45;15.73;;;;;;;0.55;86.67;98148.53;5004553;28;20117;-83
2023/12/08 09:37:29;;;;;;;28.08;16.30;;;;;;;0.34;87.01;98154.00;4991808;28;20038;-83
2023/12/08 09:39:54;;;;;;;25.58;16.17;;;;;;;0.26;87.49;98146.31;5013204;28;20030;-83
2023/12/08 09:42:34;;;;;;;27.27;14.68;;;;;;;0.37;88.26;98143.09;5012595;28;20501;-82
2023/12/08 09:45:00;;;;;;;24.23;14.60;;;;;;;0.61;86.68;98135.41;5011716;28;20042;-83
2023/12/08 09:47:29;;;;;;;26.15;15.15;;;;;;;0.49;86.77;98131.78;5007863;28;20519;-83
2023/12/08 09:49:55;;;;;;;24.42;14.77;;;;;;;0.27;88.10;98132.19;4979161;28;20026;-83
2023/12/08 09:52:21;;;;;;;28.80;15.52;;;;;;;0.55;87.46;98122.28;5027050;28;20042;-83
2023/12/08 09:54:47;;;;;;;29.83;15.30;;;;;;;0.59;86.71;98132.19;5000795;28;20176;-83
2023/12/08 09:57:14;;;;;;;28.15;15.00;;;;;;;0.65;86.83;98117.47;5003415;28;20112;-84
2023/12/08 09:59:41;;;;;;;24.17;14.38;;;;;;;0.48;86.95;98119.66;5011226;28;20021;-83
2023/12/08 10:02:09;;;;;;;28.90;15.90;;;;;;;0.30;88.35;98116.84;5024516;28;20414;-84
2023/12/08 10:04:35;;;;;;;27.50;15.90;;;;;;;0.35;88.08;98106.53;5010013;28;20105;-83
2023/12/08 10:07:05;;;;;;;28.17;16.45;;;;;;;0.45;87.17;98101.72;4995998;28;20037;-84
2023/12/08 10:09:34;;;;;;;26.48;15.55;;;;;;;0.37;88.10;98088.00;5008138;28;20030;-83
2023/12/08 10:12:00;;;;;;;26.73;14.80;;;;;;;0.61;87.38;98106.53;5002845;28;20116;-85
2023/12/08 10:14:25;;;;;;;30.35;16.27;;;;;;;0.48;86.89;98103.13;5009995;28;20129;-84
2023/12/08 10:16:51;;;;;;;23.48;14.90;;;;;;;0.45;88.01;98093.84;5007920;28;20152;-84
2023/12/08 10:19:20;;;;;;;27.83;16.25;;;;;;;0.64;87.16;98097.44;5008563;28;20038;-85
2023/12/08 10:21:58;;;;;;;25.23;15.85;;;;;;;0.69;86.82;98081.91;5013114;28;20119;-85
2023/12/08 10:24:23;;;;;;;30.92;16.20;;;;;;;0.61;87.35;98092.63;5018012;28;20018;-85
2023/12/08 10:26:52;;;;;;;28.20;15.95;;;;;;;0.72;87.01;98098.03;4973351;28;20107;-85
2023/12/08 10:29:18;;;;;;;25.85;14.98;;;;;;;0.74;86.12;98095.22;5013800;28;20037;-85
2023/12/08 10:31:43;;;;;;;27.92;14.23;;;;;;;0.46;86.92;98089.41;5017878;28;20064;-85
2023/12/08 10:34:08;;;;;;;31.60;18.70;;;;;;;0.58;87.03;98095.66;4993607;28;20037;-85
2023/12/08 10:36:36;;;;;;;26.10;15.77;;;;;;;0.63;87.31;98083.50;5012877;28;20033;-86
2023/12/08 10:39:02;;;;;;;26.50;15.30;;;;;;;0.37;87.65;98069.63;5002297;28;20124;-85
2023/12/08 10:41:27;;;;;;;26.20;15.93;;;;;;;0.09;89.27;98084.75;5020505;28;20502;-86
2023/12/08 10:43:53;;;;;;;24.48;15.38;;;;;;;0.38;88.97;98082.53;5010304;28;20645;-85
2023/12/08 10:46:19;;;;;;;30.58;18.30;;;;;;;0.54;88.32;98089.19;5002071;28;20030;-86
2023/12/08 10:48:45;;;;;;;30.58;16.88;;;;;;;0.48;87.93;98074.25;5027354;28;20029;-86
2023/12/08 10:51:13;;;;;;;27.13;16.13;;;;;;;0.64;87.55;98094.81;5008150;28;20521;-86
2023/12/08 10:53:40;;;;;;;26.75;16.55;;;;;;;0.84;86.47;98087.72;5011385;28;20034;-86
2023/12/08 10:56:09;;;;;;;26.40;15.10;;;;;;;0.75;86.75;98091.56;4977688;28;20379;-86
2023/12/08 10:58:35;;;;;;;28.27;16.30;;;;;;;1.02;86.18;98094.97;5029538;28;20030;-86
2023/12/08 11:01:06;;;;;;;25.60;14.48;;;;;;;0.83;85.92;98093.19;4994589;28;20033;-86
2023/12/08 11:03:32;;;;;;;27.45;15.55;;;;;;;0.87;86.20;98091.75;5018569;28;20124;-86
2023/12/08 11:06:21;;;;;;;28.65;15.45;;;;;;;0.95;85.69;98084.47;5003216;28;20025;-86
2023/12/08 11:08:54;;;;;;;23.67;15.18;;;;;;;0.96;85.96;98082.66;5008668;28;20025;-86
2023/12/08 11:11:21;;;;;;;22.38;14.68;;;;;;;0.58;85.75;98074.63;4988776;28;20033;-86
2023/12/08 11:13:50;;;;;;;30.50;18.27;;;;;;;0.76;86.67;98087.94;5010842;28;20116;-86